sensor_id;sensor_type;location;lat;lon;timestamp;pressure;altitude;pressure_sealevel;temperature
19102;BMP280;9683;49.028;12.064;2023-04-01T00:01:03;95837.44;;;11.33
19102;BMP280;9683;49.028;12.064;2023-04-01T00:03:31;95849.13;;;11.32
19102;BMP280;9683;49.028;12.064;2023-04-01T00:05:59;95836.91;;;11.31
19102;BMP280;9683;49.028;12.064;2023-04-01T00:08:26;95840.09;;;11.33
19102;BMP280;9683;49.028;12.064;2023-04-01T00:10:54;95830.25;;;11.34
19102;BMP280;9683;49.028;12.064;2023-04-01T00:13:22;95833.47;;;11.36
19102;BMP280;9683;49.028;12.064;2023-04-01T00:15:51;95836.38;;;11.34
19102;BMP280;9683;49.028;12.064;2023-04-01T00:18:19;95839.03;;;11.34
19102;BMP280;9683;49.028;12.064;2023-04-01T00:20:46;95823.06;;;11.34
19102;BMP280;9683;49.028;12.064;2023-04-01T00:23:13;95836.66;;;11.38
19102;BMP280;9683;49.028;12.064;2023-04-01T00:25:40;95827.34;;;11.35
19102;BMP280;9683;49.028;12.064;2023-04-01T00:28:07;95833.72;;;11.34
19102;BMP280;9683;49.028;12.064;2023-04-01T00:30:35;95830.00;;;11.35
19102;BMP280;9683;49.028;12.064;2023-04-01T00:33:01;95836.38;;;11.34
19102;BMP280;9683;49.028;12.064;2023-04-01T00:35:30;95828.41;;;11.39
19102;BMP280;9683;49.028;12.064;2023-04-01T00:38:00;95834.78;;;11.38
19102;BMP280;9683;49.028;12.064;2023-04-01T00:40:29;95832.13;;;11.38
19102;BMP280;9683;49.028;12.064;2023-04-01T00:42:56;95825.19;;;11.37
19102;BMP280;9683;49.028;12.064;2023-04-01T00:45:37;95826.81;;;11.38
19102;BMP280;9683;49.028;12.064;2023-04-01T00:48:07;95822.28;;;11.39
19102;BMP280;9683;49.028;12.064;2023-04-01T00:50:36;95822.56;;;11.42
19102;BMP280;9683;49.028;12.064;2023-04-01T00:53:05;95825.22;;;11.42
19102;BMP280;9683;49.028;12.064;2023-04-01T00:55:35;95820.44;;;11.39
19102;BMP280;9683;49.028;12.064;2023-04-01T00:58:05;95820.16;;;11.36
19102;BMP280;9683;49.028;12.064;2023-04-01T01:00:34;95823.06;;;11.34
19102;BMP280;9683;49.028;12.064;2023-04-01T01:03:02;95824.66;;;11.30
19102;BMP280;9683;49.028;12.064;2023-04-01T01:05:42;95828.66;;;11.33
19102;BMP280;9683;49.028;12.064;2023-04-01T01:08:14;95817.47;;;11.31
19102;BMP280;9683;49.028;12.064;2023-04-01T01:10:42;95826.25;;;11.31
19102;BMP280;9683;49.028;12.064;2023-04-01T01:13:17;95816.69;;;11.30
19102;BMP280;9683;49.028;12.064;2023-04-01T01:15:46;95833.72;;;11.29
19102;BMP280;9683;49.028;12.064;2023-04-01T01:18:19;95819.88;;;11.27
19102;BMP280;9683;49.028;12.064;2023-04-01T01:21:18;95824.66;;;11.25
19102;BMP280;9683;49.028;12.064;2023-04-01T01:24:12;95811.88;;;11.22
19102;BMP280;9683;49.028;12.064;2023-04-01T01:26:57;95811.06;;;11.22
19102;BMP280;9683;49.028;12.064;2023-04-01T01:30:01;95815.59;;;11.26
19102;BMP280;9683;49.028;12.064;2023-04-01T01:32:49;95808.41;;;11.27
19102;BMP280;9683;49.028;12.064;2023-04-01T01:35:24;95809.47;;;11.26
19102;BMP280;9683;49.028;12.064;2023-04-01T01:37:55;95813.47;;;11.23
19102;BMP280;9683;49.028;12.064;2023-04-01T01:40:26;95814.81;;;11.26
19102;BMP280;9683;49.028;12.064;2023-04-01T01:42:56;95811.59;;;11.24
19102;BMP280;9683;49.028;12.064;2023-04-01T01:45:26;95812.13;;;11.21
19102;BMP280;9683;49.028;12.064;2023-04-01T01:47:54;95816.38;;;11.22
19102;BMP280;9683;49.028;12.064;2023-04-01T01:50:25;95809.47;;;11.21
19102;BMP280;9683;49.028;12.064;2023-04-01T01:53:01;95806.81;;;11.21
19102;BMP280;9683;49.028;12.064;2023-04-01T01:55:29;95817.72;;;11.19
19102;BMP280;9683;49.028;12.064;2023-04-01T01:57:59;95811.31;;;11.20
19102;BMP280;9683;49.028;12.064;2023-04-01T02:00:27;95808.66;;;11.20
19102;BMP280;9683;49.028;12.064;2023-04-01T02:02:55;95817.19;;;11.22
19102;BMP280;9683;49.028;12.064;2023-04-01T02:05:26;95809.47;;;11.21
19102;BMP280;9683;49.028;12.064;2023-04-01T02:08:00;95812.66;;;11.18
19102;BMP280;9683;49.028;12.064;2023-04-01T02:10:28;95808.94;;;11.19
19102;BMP280;9683;49.028;12.064;2023-04-01T02:12:59;95802.00;;;11.18
19102;BMP280;9683;49.028;12.064;2023-04-01T02:15:31;95806.53;;;11.17
19102;BMP280;9683;49.028;12.064;2023-04-01T02:18:01;95813.44;;;11.13
19102;BMP280;9683;49.028;12.064;2023-04-01T02:20:30;95801.75;;;11.14
19102;BMP280;9683;49.028;12.064;2023-04-01T02:22:58;95802.78;;;11.13
19102;BMP280;9683;49.028;12.064;2023-04-01T02:25:28;95805.72;;;11.12
19102;BMP280;9683;49.028;12.064;2023-04-01T02:27:57;95818.75;;;11.13
19102;BMP280;9683;49.028;12.064;2023-04-01T02:30:25;95811.56;;;11.09
19102;BMP280;9683;49.028;12.064;2023-04-01T02:32:53;95811.03;;;11.07
19102;BMP280;9683;49.028;12.064;2023-04-01T02:35:20;95804.13;;;11.06
19102;BMP280;9683;49.028;12.064;2023-04-01T02:37:49;95809.16;;;11.07
19102;BMP280;9683;49.028;12.064;2023-04-01T02:40:17;95818.72;;;11.03
19102;BMP280;9683;49.028;12.064;2023-04-01T02:42:44;95810.75;;;11.03
19102;BMP280;9683;49.028;12.064;2023-04-01T02:45:12;95815.28;;;11.02
19102;BMP280;9683;49.028;12.064;2023-04-01T02:47:39;95830.97;;;11.04
19102;BMP280;9683;49.028;12.064;2023-04-01T02:50:07;95833.09;;;11.07
19102;BMP280;9683;49.028;12.064;2023-04-01T02:52:34;95841.38;;;11.06
19102;BMP280;9683;49.028;12.064;2023-04-01T02:55:03;95830.16;;;11.03
19102;BMP280;9683;49.028;12.064;2023-04-01T02:57:29;95838.13;;;10.98
19102;BMP280;9683;49.028;12.064;2023-04-01T02:59:56;95846.91;;;10.99
19102;BMP280;9683;49.028;12.064;2023-04-01T03:02:23;95842.69;;;10.98
19102;BMP280;9683;49.028;12.064;2023-04-01T03:04:49;95838.66;;;10.95
19102;BMP280;9683;49.028;12.064;2023-04-01T03:07:16;95841.88;;;10.97
19102;BMP280;9683;49.028;12.064;2023-04-01T03:09:43;95845.34;;;10.98
19102;BMP280;9683;49.028;12.064;2023-04-01T03:12:11;95846.66;;;11.00
19102;BMP280;9683;49.028;12.064;2023-04-01T03:14:38;95846.13;;;10.98
19102;BMP280;9683;49.028;12.064;2023-04-01T03:17:04;95847.72;;;10.99
19102;BMP280;9683;49.028;12.064;2023-04-01T03:19:31;95838.44;;;11.02
19102;BMP280;9683;49.028;12.064;2023-04-01T03:21:58;95843.44;;;10.98
19102;BMP280;9683;49.028;12.064;2023-04-01T03:24:25;95869.53;;;10.96
19102;BMP280;9683;49.028;12.064;2023-04-01T03:26:51;95842.38;;;10.94
19102;BMP280;9683;49.028;12.064;2023-04-01T03:29:19;95850.34;;;10.94
19102;BMP280;9683;49.028;12.064;2023-04-01T03:31:46;95842.91;;;10.91
19102;BMP280;9683;49.028;12.064;2023-04-01T03:34:12;95854.06;;;10.88
19102;BMP280;9683;49.028;12.064;2023-04-01T03:36:39;95846.63;;;10.85
19102;BMP280;9683;49.028;12.064;2023-04-01T03:39:06;95860.41;;;10.82
19102;BMP280;9683;49.028;12.064;2023-04-01T03:41:46;95852.72;;;10.81
19102;BMP280;9683;49.028;12.064;2023-04-01T03:44:13;95855.09;;;10.82
19102;BMP280;9683;49.028;12.064;2023-04-01T03:46:41;95858.03;;;10.81
19102;BMP280;9683;49.028;12.064;2023-04-01T03:49:08;95862.56;;;10.80
19102;BMP280;9683;49.028;12.064;2023-04-01T03:51:36;95861.50;;;10.81
19102;BMP280;9683;49.028;12.064;2023-04-01T03:54:03;95865.22;;;10.80
19102;BMP280;9683;49.028;12.064;2023-04-01T03:56:30;95854.81;;;10.79
19102;BMP280;9683;49.028;12.064;2023-04-01T03:58:56;95847.91;;;10.78
19102;BMP280;9683;49.028;12.064;2023-04-01T04:01:23;95857.75;;;10.77
19102;BMP280;9683;49.028;12.064;2023-04-01T04:03:51;95856.97;;;10.82
19102;BMP280;9683;49.028;12.064;2023-04-01T04:06:19;95854.84;;;10.84
19102;BMP280;9683;49.028;12.064;2023-04-01T04:08:45;95868.16;;;10.84
19102;BMP280;9683;49.028;12.064;2023-04-01T04:11:12;95860.41;;;10.82
19102;BMP280;9683;49.028;12.064;2023-04-01T04:13:39;95879.31;;;10.81
19102;BMP280;9683;49.028;12.064;2023-04-01T04:16:06;95853.25;;;10.83
19102;BMP280;9683;49.028;12.064;2023-04-01T04:18:33;95859.63;;;10.82
19102;BMP280;9683;49.028;12.064;2023-04-01T04:21:02;95865.47;;;10.79
19102;BMP280;9683;49.028;12.064;2023-04-01T04:23:29;95876.38;;;10.77
19102;BMP280;9683;49.028;12.064;2023-04-01T04:25:58;95871.06;;;10.77
19102;BMP280;9683;49.028;12.064;2023-04-01T04:28:25;95867.59;;;10.77
19102;BMP280;9683;49.028;12.064;2023-04-01T04:30:52;95891.53;;;10.77
19102;BMP280;9683;49.028;12.064;2023-04-01T04:33:18;95874.22;;;10.74
19102;BMP280;9683;49.028;12.064;2023-04-01T04:35:45;95874.50;;;10.73
19102;BMP280;9683;49.028;12.064;2023-04-01T04:38:13;95870.50;;;10.75
19102;BMP280;9683;49.028;12.064;2023-04-01T04:40:41;95882.19;;;10.74
19102;BMP280;9683;49.028;12.064;2023-04-01T04:43:10;95886.47;;;10.75
19102;BMP280;9683;49.028;12.064;2023-04-01T04:45:37;95886.19;;;10.72
19102;BMP280;9683;49.028;12.064;2023-04-01T04:48:03;95916.72;;;10.64
19102;BMP280;9683;49.028;12.064;2023-04-01T04:50:30;95873.34;;;10.58
19102;BMP280;9683;49.028;12.064;2023-04-01T04:52:57;95877.84;;;10.58
19102;BMP280;9683;49.028;12.064;2023-04-01T04:55:25;95870.44;;;10.60
19102;BMP280;9683;49.028;12.064;2023-04-01T04:57:52;95877.34;;;10.56
19102;BMP280;9683;49.028;12.064;2023-04-01T05:00:18;95880.25;;;10.54
19102;BMP280;9683;49.028;12.064;2023-04-01T05:02:46;95887.41;;;10.54
19102;BMP280;9683;49.028;12.064;2023-04-01T05:05:12;95886.34;;;10.55
19102;BMP280;9683;49.028;12.064;2023-04-01T05:07:39;95884.50;;;10.55
19102;BMP280;9683;49.028;12.064;2023-04-01T05:10:06;95891.16;;;10.58
19102;BMP280;9683;49.028;12.064;2023-04-01T05:12:34;95886.34;;;10.55
19102;BMP280;9683;49.028;12.064;2023-04-01T05:15:03;95891.41;;;10.51
19102;BMP280;9683;49.028;12.064;2023-04-01T05:17:33;95892.19;;;10.52
19102;BMP280;9683;49.028;12.064;2023-04-01T05:20:00;95904.13;;;10.49
19102;BMP280;9683;49.028;12.064;2023-04-01T05:22:27;95896.16;;;10.49
19102;BMP280;9683;49.028;12.064;2023-04-01T05:24:53;95900.66;;;10.49
19102;BMP280;9683;49.028;12.064;2023-04-01T05:27:20;95901.75;;;10.53
19102;BMP280;9683;49.028;12.064;2023-04-01T05:29:48;95901.50;;;10.54
19102;BMP280;9683;49.028;12.064;2023-04-01T05:32:15;95916.94;;;10.57
19102;BMP280;9683;49.028;12.064;2023-04-01T05:34:42;95902.84;;;10.57
19102;BMP280;9683;49.028;12.064;2023-04-01T05:37:08;95911.91;;;10.61
19102;BMP280;9683;49.028;12.064;2023-04-01T05:39:36;95907.16;;;10.63
19102;BMP280;9683;49.028;12.064;2023-04-01T05:42:03;95905.56;;;10.67
19102;BMP280;9683;49.028;12.064;2023-04-01T05:44:31;95910.38;;;10.70
19102;BMP280;9683;49.028;12.064;2023-04-01T05:46:59;95910.16;;;10.77
19102;BMP280;9683;49.028;12.064;2023-04-01T05:49:26;95908.78;;;10.74
19102;BMP280;9683;49.028;12.064;2023-04-01T05:51:52;95903.19;;;10.71
19102;BMP280;9683;49.028;12.064;2023-04-01T05:54:19;95906.94;;;10.75
19102;BMP280;9683;49.028;12.064;2023-04-01T05:56:46;95908.00;;;10.74
19102;BMP280;9683;49.028;12.064;2023-04-01T05:59:13;95905.88;;;10.76
19102;BMP280;9683;49.028;12.064;2023-04-01T06:01:39;95900.03;;;10.79
19102;BMP280;9683;49.028;12.064;2023-04-01T06:04:11;95913.91;;;10.81
19102;BMP280;9683;49.028;12.064;2023-04-01T06:06:39;95927.72;;;10.83
19102;BMP280;9683;49.028;12.064;2023-04-01T06:09:13;95917.66;;;10.85
19102;BMP280;9683;49.028;12.064;2023-04-01T06:11:51;95915.22;;;10.83
19102;BMP280;9683;49.028;12.064;2023-04-01T06:14:29;95910.47;;;10.85
19102;BMP280;9683;49.028;12.064;2023-04-01T06:17:08;95914.75;;;10.91
19102;BMP280;9683;49.028;12.064;2023-04-01T06:19:47;95923.25;;;10.88
19102;BMP280;9683;49.028;12.064;2023-04-01T06:22:35;95916.59;;;10.91
19102;BMP280;9683;49.028;12.064;2023-04-01T06:25:30;95916.88;;;10.89
19102;BMP280;9683;49.028;12.064;2023-04-01T06:28:22;95913.13;;;10.90
19102;BMP280;9683;49.028;12.064;2023-04-01T06:31:00;95905.16;;;10.90
19102;BMP280;9683;49.028;12.064;2023-04-01T06:33:37;95911.28;;;10.91
19102;BMP280;9683;49.028;12.064;2023-04-01T06:36:19;95920.63;;;10.93
19102;BMP280;9683;49.028;12.064;2023-04-01T06:39:13;95924.38;;;10.97
19102;BMP280;9683;49.028;12.064;2023-04-01T06:42:08;95919.59;;;11.04
19102;BMP280;9683;49.028;12.064;2023-04-01T06:44:42;95926.56;;;11.11
19102;BMP280;9683;49.028;12.064;2023-04-01T06:47:22;95921.50;;;11.14
19102;BMP280;9683;49.028;12.064;2023-04-01T06:49:56;95926.28;;;11.12
19102;BMP280;9683;49.028;12.064;2023-04-01T06:52:38;95937.69;;;11.08
19102;BMP280;9683;49.028;12.064;2023-04-01T06:55:21;95926.25;;;11.07
19102;BMP280;9683;49.028;12.064;2023-04-01T06:57:52;95924.41;;;11.02
19102;BMP280;9683;49.028;12.064;2023-04-01T07:00:27;95937.19;;;11.06
19102;BMP280;9683;49.028;12.064;2023-04-01T07:03:01;95922.00;;;11.06
19102;BMP280;9683;49.028;12.064;2023-04-01T07:05:30;95919.06;;;11.08
19102;BMP280;9683;49.028;12.064;2023-04-01T07:08:01;95919.06;;;11.08
19102;BMP280;9683;49.028;12.064;2023-04-01T07:10:33;95920.44;;;11.10
19102;BMP280;9683;49.028;12.064;2023-04-01T07:13:05;95908.97;;;11.10
19102;BMP280;9683;49.028;12.064;2023-04-01T07:15:37;95926.28;;;11.12
19102;BMP280;9683;49.028;12.064;2023-04-01T07:18:11;95925.22;;;11.13
19102;BMP280;9683;49.028;12.064;2023-04-01T07:20:39;95916.72;;;11.16
19102;BMP280;9683;49.028;12.064;2023-04-01T07:23:15;95930.06;;;11.21
19102;BMP280;9683;49.028;12.064;2023-04-01T07:25:44;95922.59;;;11.18
19102;BMP280;9683;49.028;12.064;2023-04-01T07:28:13;95909.56;;;11.22
19102;BMP280;9683;49.028;12.064;2023-04-01T07:30:49;95912.75;;;11.24
19102;BMP280;9683;49.028;12.064;2023-04-01T07:33:22;95911.19;;;11.28
19102;BMP280;9683;49.028;12.064;2023-04-01T07:35:54;95920.25;;;11.32
19102;BMP280;9683;49.028;12.064;2023-04-01T07:38:28;95907.50;;;11.39
19102;BMP280;9683;49.028;12.064;2023-04-01T07:41:02;95911.75;;;11.40
19102;BMP280;9683;49.028;12.064;2023-04-01T07:43:49;95912.28;;;11.42
19102;BMP280;9683;49.028;12.064;2023-04-01T07:46:26;95914.16;;;11.46
19102;BMP280;9683;49.028;12.064;2023-04-01T07:49:04;95919.75;;;11.50
19102;BMP280;9683;49.028;12.064;2023-04-01T07:51:36;95918.97;;;11.55
19102;BMP280;9683;49.028;12.064;2023-04-01T07:54:10;95938.97;;;11.57
19102;BMP280;9683;49.028;12.064;2023-04-01T07:56:44;95925.13;;;11.60
19102;BMP280;9683;49.028;12.064;2023-04-01T07:59:17;95906.50;;;11.65
19102;BMP280;9683;49.028;12.064;2023-04-01T08:01:52;95927.03;;;11.70
19102;BMP280;9683;49.028;12.064;2023-04-01T08:04:29;95915.06;;;11.72
19102;BMP280;9683;49.028;12.064;2023-04-01T08:07:02;95915.84;;;11.73
19102;BMP280;9683;49.028;12.064;2023-04-01T08:09:39;95914.81;;;11.74
19102;BMP280;9683;49.028;12.064;2023-04-01T08:12:18;95938.50;;;11.80
19102;BMP280;9683;49.028;12.064;2023-04-01T08:14:53;95928.41;;;11.82
19102;BMP280;9683;49.028;12.064;2023-04-01T08:17:28;95918.28;;;11.89
19102;BMP280;9683;49.028;12.064;2023-04-01T08:20:10;95921.75;;;11.95
19102;BMP280;9683;49.028;12.064;2023-04-01T08:22:42;95930.53;;;12.01
19102;BMP280;9683;49.028;12.064;2023-04-01T08:25:16;95923.09;;;12.03
19102;BMP280;9683;49.028;12.064;2023-04-01T08:27:45;95911.91;;;12.06
19102;BMP280;9683;49.028;12.064;2023-04-01T08:30:18;95914.56;;;12.11
19102;BMP280;9683;49.028;12.064;2023-04-01T08:32:48;95914.03;;;12.14
19102;BMP280;9683;49.028;12.064;2023-04-01T08:35:20;95919.38;;;12.19
19102;BMP280;9683;49.028;12.064;2023-04-01T08:37:49;95919.38;;;12.24
19102;BMP280;9683;49.028;12.064;2023-04-01T08:40:35;95920.16;;;12.29
19102;BMP280;9683;49.028;12.064;2023-04-01T08:43:09;95918.84;;;12.37
19102;BMP280;9683;49.028;12.064;2023-04-01T08:45:56;95909.50;;;12.45
19102;BMP280;9683;49.028;12.064;2023-04-01T08:48:37;95907.09;;;12.48
19102;BMP280;9683;49.028;12.064;2023-04-01T08:57:24;95917.47;;;12.55
19102;BMP280;9683;49.028;12.064;2023-04-01T09:00:04;95904.69;;;12.52
19102;BMP280;9683;49.028;12.064;2023-04-01T09:03:02;95896.94;;;12.55
19102;BMP280;9683;49.028;12.064;2023-04-01T09:05:41;95895.31;;;12.54
19102;BMP280;9683;49.028;12.064;2023-04-01T09:08:25;95895.06;;;12.56
19102;BMP280;9683;49.028;12.064;2023-04-01T09:11:00;95915.84;;;12.59
19102;BMP280;9683;49.028;12.064;2023-04-01T09:13:51;95924.16;;;12.57
19102;BMP280;9683;49.028;12.064;2023-04-01T09:16:28;95897.47;;;12.62
19102;BMP280;9683;49.028;12.064;2023-04-01T09:19:24;95908.66;;;12.64
19102;BMP280;9683;49.028;12.064;2023-04-01T09:22:15;95901.97;;;12.72
19102;BMP280;9683;49.028;12.064;2023-04-01T09:25:06;95893.41;;;12.80
19102;BMP280;9683;49.028;12.064;2023-04-01T09:27:44;95913.94;;;12.90
19102;BMP280;9683;49.028;12.064;2023-04-01T09:30:32;95903.75;;;12.97
19102;BMP280;9683;49.028;12.064;2023-04-01T09:33:15;95899.72;;;13.09
19102;BMP280;9683;49.028;12.064;2023-04-01T09:35:47;95911.72;;;13.22
19102;BMP280;9683;49.028;12.064;2023-04-01T09:38:21;95907.69;;;13.29
19102;BMP280;9683;49.028;12.064;2023-04-01T09:40:55;95907.66;;;13.35
19102;BMP280;9683;49.028;12.064;2023-04-01T09:43:43;95919.69;;;13.37
19102;BMP280;9683;49.028;12.064;2023-04-01T09:46:20;95908.69;;;13.39
19102;BMP280;9683;49.028;12.064;2023-04-01T09:49:23;95910.56;;;13.43
19102;BMP280;9683;49.028;12.064;2023-04-01T09:52:04;95902.59;;;13.38
19102;BMP280;9683;49.028;12.064;2023-04-01T09:54:51;95909.56;;;13.34
19102;BMP280;9683;49.028;12.064;2023-04-01T10:00:47;95906.59;;;13.36
19102;BMP280;9683;49.028;12.064;2023-04-01T10:03:58;95913.88;;;13.25
19102;BMP280;9683;49.028;12.064;2023-04-01T10:06:51;95922.13;;;13.23
19102;BMP280;9683;49.028;12.064;2023-04-01T10:09:47;95915.19;;;13.22
19102;BMP280;9683;49.028;12.064;2023-04-01T10:12:45;95910.16;;;13.21
19102;BMP280;9683;49.028;12.064;2023-04-01T10:18:58;95884.75;;;13.23
19102;BMP280;9683;49.028;12.064;2023-04-01T10:21:52;95890.88;;;13.24
19102;BMP280;9683;49.028;12.064;2023-04-01T10:27:37;95898.88;;;13.29
19102;BMP280;9683;49.028;12.064;2023-04-01T10:33:13;95893.00;;;13.27
19102;BMP280;9683;49.028;12.064;2023-04-01T10:36:19;95892.19;;;13.31
19102;BMP280;9683;49.028;12.064;2023-04-01T10:48:19;95893.72;;;13.43
19102;BMP280;9683;49.028;12.064;2023-04-01T10:51:16;95878.47;;;13.48
19102;BMP280;9683;49.028;12.064;2023-04-01T10:54:18;95887.31;;;13.44
19102;BMP280;9683;49.028;12.064;2023-04-01T10:56:51;95881.75;;;13.35
19102;BMP280;9683;49.028;12.064;2023-04-01T11:03:18;95873.25;;;13.28
19102;BMP280;9683;49.028;12.064;2023-04-01T11:09:43;95859.56;;;13.40
19102;BMP280;9683;49.028;12.064;2023-04-01T11:15:35;95863.78;;;13.51
19102;BMP280;9683;49.028;12.064;2023-04-01T11:18:30;95866.13;;;13.57
19102;BMP280;9683;49.028;12.064;2023-04-01T11:21:29;95869.59;;;13.63
19102;BMP280;9683;49.028;12.064;2023-04-01T11:27:25;95865.31;;;13.62
19102;BMP280;9683;49.028;12.064;2023-04-01T11:30:08;95875.19;;;13.61
19102;BMP280;9683;49.028;12.064;2023-04-01T11:32:43;95896.06;;;13.59
19102;BMP280;9683;49.028;12.064;2023-04-01T11:35:25;95908.47;;;13.35
19102;BMP280;9683;49.028;12.064;2023-04-01T11:38:01;95908.78;;;13.18
19102;BMP280;9683;49.028;12.064;2023-04-01T11:40:37;95906.94;;;13.09
19102;BMP280;9683;49.028;12.064;2023-04-01T11:43:12;95927.78;;;12.97
19102;BMP280;9683;49.028;12.064;2023-04-01T11:45:45;95915.25;;;12.92
19102;BMP280;9683;49.028;12.064;2023-04-01T11:48:35;95917.16;;;12.86
19102;BMP280;9683;49.028;12.064;2023-04-01T11:51:15;95906.25;;;12.78
19102;BMP280;9683;49.028;12.064;2023-04-01T11:53:52;95929.75;;;12.71
19102;BMP280;9683;49.028;12.064;2023-04-01T11:56:30;95925.72;;;12.63
19102;BMP280;9683;49.028;12.064;2023-04-01T11:59:29;95915.59;;;12.60
19102;BMP280;9683;49.028;12.064;2023-04-01T12:02:03;95923.59;;;12.55
19102;BMP280;9683;49.028;12.064;2023-04-01T12:04:58;95921.50;;;12.57
19102;BMP280;9683;49.028;12.064;2023-04-01T12:07:38;95919.63;;;12.58
19102;BMP280;9683;49.028;12.064;2023-04-01T12:10:17;95916.16;;;12.62
19102;BMP280;9683;49.028;12.064;2023-04-01T12:12:49;95918.53;;;12.64
19102;BMP280;9683;49.028;12.064;2023-04-01T12:15:30;95917.72;;;12.63
19102;BMP280;9683;49.028;12.064;2023-04-01T12:18:09;95912.94;;;12.60
19102;BMP280;9683;49.028;12.064;2023-04-01T12:20:45;95919.06;;;12.66
19102;BMP280;9683;49.028;12.064;2023-04-01T12:23:28;95914.00;;;12.59
19102;BMP280;9683;49.028;12.064;2023-04-01T12:26:07;95910.81;;;12.57
19102;BMP280;9683;49.028;12.064;2023-04-01T12:28:41;95921.75;;;12.51
19102;BMP280;9683;49.028;12.064;2023-04-01T12:31:21;95924.69;;;12.39
19102;BMP280;9683;49.028;12.064;2023-04-01T12:34:14;95916.69;;;12.29
19102;BMP280;9683;49.028;12.064;2023-04-01T12:36:55;95929.22;;;12.18
19102;BMP280;9683;49.028;12.064;2023-04-01T12:39:36;95928.94;;;12.25
19102;BMP280;9683;49.028;12.064;2023-04-01T12:42:12;95951.91;;;12.31
19102;BMP280;9683;49.028;12.064;2023-04-01T12:44:50;95920.69;;;12.26
19102;BMP280;9683;49.028;12.064;2023-04-01T12:47:43;95934.56;;;12.18
19102;BMP280;9683;49.028;12.064;2023-04-01T12:50:25;95927.38;;;12.19
19102;BMP280;9683;49.028;12.064;2023-04-01T12:53:01;95926.31;;;12.20
19102;BMP280;9683;49.028;12.064;2023-04-01T12:55:38;95938.81;;;12.14
19102;BMP280;9683;49.028;12.064;2023-04-01T13:01:09;95932.69;;;12.09
19102;BMP280;9683;49.028;12.064;2023-04-01T13:07:16;95920.97;;;12.10
19102;BMP280;9683;49.028;12.064;2023-04-01T13:09:53;95932.69;;;12.14
19102;BMP280;9683;49.028;12.064;2023-04-01T13:12:32;95930.28;;;12.12
19102;BMP280;9683;49.028;12.064;2023-04-01T13:15:18;95934.84;;;12.12
19102;BMP280;9683;49.028;12.064;2023-04-01T13:17:52;95927.09;;;12.10
19102;BMP280;9683;49.028;12.064;2023-04-01T13:20:34;95928.69;;;12.11
19102;BMP280;9683;49.028;12.064;2023-04-01T13:23:13;95950.28;;;12.10
19102;BMP280;9683;49.028;12.064;2023-04-01T13:25:47;95939.91;;;12.03
19102;BMP280;9683;49.028;12.064;2023-04-01T13:28:20;95942.25;;;12.00
19102;BMP280;9683;49.028;12.064;2023-04-01T13:30:54;95937.75;;;11.95
19102;BMP280;9683;49.028;12.064;2023-04-01T13:33:29;95933.75;;;11.98
19102;BMP280;9683;49.028;12.064;2023-04-01T13:36:08;95932.69;;;11.99
19102;BMP280;9683;49.028;12.064;2023-04-01T13:38:51;95954.00;;;11.99
19102;BMP280;9683;49.028;12.064;2023-04-01T13:41:32;95944.16;;;11.99
19102;BMP280;9683;49.028;12.064;2023-04-01T13:44:09;95946.81;;;11.99
19102;BMP280;9683;49.028;12.064;2023-04-01T13:46:54;95944.41;;;12.03
19102;BMP280;9683;49.028;12.064;2023-04-01T13:49:36;95945.50;;;12.07
19102;BMP280;9683;49.028;12.064;2023-04-01T13:52:19;95951.34;;;12.09
19102;BMP280;9683;49.028;12.064;2023-04-01T13:58:19;95960.44;;;12.08
19102;BMP280;9683;49.028;12.064;2023-04-01T14:00:55;95957.47;;;12.09
19102;BMP280;9683;49.028;12.064;2023-04-01T14:03:43;95954.28;;;12.07
19102;BMP280;9683;49.028;12.064;2023-04-01T14:06:17;95956.69;;;12.09
19102;BMP280;9683;49.028;12.064;2023-04-01T14:09:03;95944.44;;;12.08
19102;BMP280;9683;49.028;12.064;2023-04-01T14:11:36;95955.38;;;12.11
19102;BMP280;9683;49.028;12.064;2023-04-01T14:14:13;95960.16;;;12.14
19102;BMP280;9683;49.028;12.064;2023-04-01T14:17:00;95965.25;;;12.16
19102;BMP280;9683;49.028;12.064;2023-04-01T14:22:25;95950.56;;;12.18
19102;BMP280;9683;49.028;12.064;2023-04-01T14:25:18;95952.69;;;12.21
19102;BMP280;9683;49.028;12.064;2023-04-01T14:27:59;95962.84;;;12.24
19102;BMP280;9683;49.028;12.064;2023-04-01T14:30:38;95946.56;;;12.26
19102;BMP280;9683;49.028;12.064;2023-04-01T14:33:21;95955.38;;;12.26
19102;BMP280;9683;49.028;12.064;2023-04-01T14:35:56;95971.63;;;12.25
19102;BMP280;9683;49.028;12.064;2023-04-01T14:38:38;95960.19;;;12.24
19102;BMP280;9683;49.028;12.064;2023-04-01T14:41:20;95955.09;;;12.23
19102;BMP280;9683;49.028;12.064;2023-04-01T14:43:56;95967.38;;;12.19
19102;BMP280;9683;49.028;12.064;2023-04-01T14:49:42;95953.50;;;12.22
19102;BMP280;9683;49.028;12.064;2023-04-01T14:52:12;95959.38;;;12.24
19102;BMP280;9683;49.028;12.064;2023-04-01T14:54:42;95964.16;;;12.22
19102;BMP280;9683;49.028;12.064;2023-04-01T14:57:13;95962.28;;;12.17
19102;BMP280;9683;49.028;12.064;2023-04-01T14:59:46;95966.81;;;12.17
19102;BMP280;9683;49.028;12.064;2023-04-01T15:02:44;95963.63;;;12.20
19102;BMP280;9683;49.028;12.064;2023-04-01T15:05:16;95960.19;;;12.24
19102;BMP280;9683;49.028;12.064;2023-04-01T15:08:10;95963.38;;;12.26
19102;BMP280;9683;49.028;12.064;2023-04-01T15:13:53;95960.44;;;12.23
19102;BMP280;9683;49.028;12.064;2023-04-01T15:16:25;95964.69;;;12.29
19102;BMP280;9683;49.028;12.064;2023-04-01T15:19:01;95968.44;;;12.33
19102;BMP280;9683;49.028;12.064;2023-04-01T15:21:43;95959.09;;;12.35
19102;BMP280;9683;49.028;12.064;2023-04-01T15:24:20;95958.03;;;12.36
19102;BMP280;9683;49.028;12.064;2023-04-01T15:27:00;95960.69;;;12.41
19102;BMP280;9683;49.028;12.064;2023-04-01T15:32:44;95967.91;;;12.51
19102;BMP280;9683;49.028;12.064;2023-04-01T15:35:19;95971.91;;;12.54
19102;BMP280;9683;49.028;12.064;2023-04-01T15:37:53;95973.78;;;12.53
19102;BMP280;9683;49.028;12.064;2023-04-01T15:40:24;95969.22;;;12.59
19102;BMP280;9683;49.028;12.064;2023-04-01T15:43:01;95973.25;;;12.61
19102;BMP280;9683;49.028;12.064;2023-04-01T15:45:45;95978.56;;;12.61
19102;BMP280;9683;49.028;12.064;2023-04-01T15:48:33;95991.38;;;12.59
19102;BMP280;9683;49.028;12.064;2023-04-01T15:51:11;95988.19;;;12.57
19102;BMP280;9683;49.028;12.064;2023-04-01T15:53:51;95990.31;;;12.55
19102;BMP280;9683;49.028;12.064;2023-04-01T15:56:29;95986.03;;;12.54
19102;BMP280;9683;49.028;12.064;2023-04-01T15:59:14;95982.31;;;12.55